Time;durP1;ratioP1;P1;durP2;ratioP2;P2;SDS_P1;SDS_P2;PMS_P1;PMS_P2;Temp;Humidity;BMP_temperature;BMP_pressure;BME280_temperature;BME280_humidity;BME280_pressure;Samples;Min_cycle;Max_cycle;Signal;HPM_P1;HPM_P2
2022/01/28 00:00:06;;;;;;;24.63;9.60;;;2.50;99.90;;;;;;4949807;28;20041;-72
2022/01/28 00:05:21;;;;;;;25.33;10.27;;;2.50;99.90;;;;;;4951734;28;20034;-69
2022/01/28 00:07:51;;;;;;;24.90;10.15;;;2.40;99.90;;;;;;4950092;28;20063;-68
2022/01/28 00:10:17;;;;;;;29.00;11.13;;;2.40;99.90;;;;;;4951419;28;20034;-70
2022/01/28 00:15:33;;;;;;;26.02;10.38;;;2.40;99.90;;;;;;4951276;28;20110;-69
2022/01/28 00:39:45;;;;;;;34.58;11.95;;;2.40;99.90;;;;;;4949849;28;20043;-68
2022/01/28 00:42:11;;;;;;;35.70;12.80;;;2.40;99.90;;;;;;4950355;28;20038;-66
2022/01/28 00:44:37;;;;;;;36.60;12.85;;;2.40;99.90;;;;;;4950688;28;20031;-66
2022/01/28 00:47:04;;;;;;;33.70;12.55;;;2.40;99.90;;;;;;4950565;28;20082;-65
2022/01/28 00:49:30;;;;;;;32.72;12.80;;;2.40;99.90;;;;;;4948707;28;20031;-67
2022/01/28 00:51:56;;;;;;;37.25;12.93;;;2.40;99.90;;;;;;4949659;28;20046;-69
2022/01/28 00:54:21;;;;;;;33.50;12.85;;;2.40;99.90;;;;;;4953571;28;20035;-67
2022/01/28 00:56:48;;;;;;;37.05;12.50;;;2.40;99.90;;;;;;4949459;28;20031;-67
2022/01/28 00:59:14;;;;;;;34.17;12.82;;;2.40;99.90;;;;;;4950195;28;20074;-69
2022/01/28 01:01:40;;;;;;;34.17;13.23;;;2.30;99.90;;;;;;4950530;28;20102;-68
2022/01/28 01:04:06;;;;;;;35.03;12.90;;;2.30;99.90;;;;;;4949063;28;20057;-68
2022/01/28 01:06:32;;;;;;;38.08;13.10;;;2.40;99.90;;;;;;4949815;28;20489;-67
2022/01/28 01:08:58;;;;;;;39.92;12.75;;;2.40;99.90;;;;;;4950564;28;20082;-66
2022/01/28 01:11:25;;;;;;;38.45;13.88;;;2.40;99.90;;;;;;4950616;28;20070;-66
2022/01/28 01:13:52;;;;;;;37.83;13.07;;;2.40;99.90;;;;;;4948929;28;20492;-67
2022/01/28 01:16:25;;;;;;;41.80;14.15;;;2.40;99.90;;;;;;4950156;28;20054;-66
2022/01/28 01:19:02;;;;;;;37.33;13.25;;;2.40;99.90;;;;;;4949672;28;20122;-66
2022/01/28 01:21:30;;;;;;;35.60;13.52;;;2.40;99.90;;;;;;4944464;28;20166;-67
2022/01/28 01:23:58;;;;;;;39.60;13.00;;;2.50;99.90;;;;;;4949713;28;20038;-74
2022/01/28 01:26:31;;;;;;;33.75;13.18;;;2.50;99.90;;;;;;4948848;28;20548;-70
2022/01/28 01:28:57;;;;;;;34.08;12.15;;;2.40;99.90;;;;;;4949444;28;20046;-71
2022/01/28 01:31:22;;;;;;;35.22;12.55;;;2.50;99.90;;;;;;4950112;28;20027;-70
2022/01/28 01:34:10;;;;;;;36.90;13.30;;;2.50;99.90;;;;;;4949747;28;20038;-70
2022/01/28 01:36:36;;;;;;;36.85;13.00;;;2.50;99.90;;;;;;4948696;28;20688;-71
2022/01/28 01:39:03;;;;;;;32.60;12.38;;;2.50;99.90;;;;;;4949481;28;20119;-73
2022/01/28 01:41:36;;;;;;;39.13;12.88;;;2.50;99.90;;;;;;4952703;28;20039;-69
2022/01/28 01:52:04;;;;;;;33.08;11.95;;;2.50;99.90;;;;;;4952359;28;20097;-71
2022/01/28 01:54:38;;;;;;;37.60;12.65;;;2.50;99.90;;;;;;4950040;28;20142;-69
2022/01/28 01:57:05;;;;;;;35.30;12.45;;;2.50;99.90;;;;;;4951214;28;20683;-71
2022/01/28 01:59:31;;;;;;;40.00;12.90;;;2.50;99.90;;;;;;4950936;28;20796;-72
2022/01/28 02:01:57;;;;;;;34.75;12.32;;;2.50;99.90;;;;;;4949977;28;20113;-71
2022/01/28 02:04:23;;;;;;;32.30;12.43;;;2.50;99.90;;;;;;4954234;28;20488;-72
2022/01/28 02:06:49;;;;;;;30.10;10.93;;;2.50;99.90;;;;;;4956239;28;20031;-73
2022/01/28 02:09:15;;;;;;;34.28;12.05;;;2.50;99.90;;;;;;4962080;28;20483;-71
2022/01/28 02:11:42;;;;;;;35.13;12.80;;;2.50;99.90;;;;;;4952536;28;20106;-72
2022/01/28 02:14:08;;;;;;;33.28;12.32;;;2.50;99.90;;;;;;4952671;28;20055;-70
2022/01/28 02:16:34;;;;;;;38.67;13.75;;;2.50;99.90;;;;;;4956146;28;20062;-71
2022/01/28 02:19:01;;;;;;;31.58;11.02;;;2.50;99.90;;;;;;4952316;28;20129;-70
2022/01/28 02:21:26;;;;;;;33.75;12.35;;;2.50;99.90;;;;;;4953522;28;20063;-71
2022/01/28 02:24:01;;;;;;;32.97;12.18;;;2.50;99.90;;;;;;4952353;28;20027;-70
2022/01/28 02:26:26;;;;;;;29.73;11.43;;;2.50;99.90;;;;;;4952276;29;20155;-70
2022/01/28 02:28:56;;;;;;;32.03;11.15;;;2.50;99.90;;;;;;4951309;29;20469;-72
2022/01/28 02:31:25;;;;;;;34.50;11.70;;;2.50;99.90;;;;;;4953589;28;20150;-72
2022/01/28 02:33:54;;;;;;;34.40;11.50;;;2.50;99.90;;;;;;4952205;28;20026;-70
2022/01/28 02:36:20;;;;;;;29.92;11.02;;;2.50;99.90;;;;;;4954096;28;20026;-70
2022/01/28 02:38:46;;;;;;;30.80;10.95;;;2.50;99.90;;;;;;4957210;28;20047;-75
2022/01/28 02:41:12;;;;;;;27.98;11.05;;;2.50;99.90;;;;;;4952789;29;20031;-70
2022/01/28 02:43:47;;;;;;;36.80;11.88;;;2.50;99.90;;;;;;4953692;28;20062;-69
2022/01/28 02:46:17;;;;;;;34.22;11.20;;;2.50;99.90;;;;;;4952093;29;20023;-72
2022/01/28 02:49:04;;;;;;;32.42;10.98;;;2.50;99.90;;;;;;4953278;28;20031;-72
2022/01/28 02:51:30;;;;;;;34.78;11.25;;;2.50;99.90;;;;;;4960225;28;20116;-70
2022/01/28 02:53:59;;;;;;;30.95;10.90;;;2.40;99.90;;;;;;4952267;28;20031;-71
2022/01/28 02:56:38;;;;;;;31.90;11.35;;;2.50;99.90;;;;;;4952450;28;20031;-72
2022/01/28 02:59:04;;;;;;;33.58;11.98;;;2.40;99.90;;;;;;4951523;28;20031;-69
2022/01/28 03:01:30;;;;;;;31.48;11.65;;;2.40;99.90;;;;;;4957442;28;20473;-70
2022/01/28 03:03:57;;;;;;;28.35;10.57;;;2.40;99.90;;;;;;4949746;28;20031;-72
2022/01/28 03:06:23;;;;;;;29.10;11.50;;;2.40;99.90;;;;;;4951887;28;20110;-69
2022/01/28 03:09:12;;;;;;;29.40;10.57;;;2.40;99.90;;;;;;4954083;28;20141;-75
2022/01/28 03:16:40;;;;;;;31.70;11.17;;;2.40;99.90;;;;;;4958890;28;20069;-69
2022/01/28 03:19:19;;;;;;;31.03;11.47;;;2.40;99.90;;;;;;4951629;29;20390;-70
2022/01/28 03:21:53;;;;;;;30.55;11.80;;;2.40;99.90;;;;;;4955979;28;20283;-70
2022/01/28 03:24:20;;;;;;;31.02;11.63;;;2.40;99.90;;;;;;4952414;28;20039;-70
2022/01/28 03:26:51;;;;;;;30.00;10.48;;;2.40;99.90;;;;;;4952443;28;20038;-72
2022/01/28 03:29:17;;;;;;;27.58;10.43;;;2.40;99.90;;;;;;4951001;28;20031;-71
2022/01/28 03:31:43;;;;;;;28.80;10.20;;;2.40;99.90;;;;;;4952205;28;20122;-72
2022/01/28 03:34:08;;;;;;;26.63;10.18;;;2.40;99.90;;;;;;4950983;28;20062;-71
2022/01/28 03:36:34;;;;;;;29.77;10.57;;;2.40;99.90;;;;;;4951369;28;20031;-72
2022/01/28 03:39:00;;;;;;;35.33;11.80;;;2.40;99.90;;;;;;4950963;28;20065;-71
2022/01/28 03:41:26;;;;;;;33.70;12.05;;;2.40;99.90;;;;;;4950123;28;20536;-71
2022/01/28 03:43:58;;;;;;;28.65;10.25;;;2.40;99.90;;;;;;4960008;28;20071;-74
2022/01/28 03:46:25;;;;;;;32.58;11.63;;;2.40;99.90;;;;;;4950528;28;20027;-70
2022/01/28 03:48:52;;;;;;;30.48;11.20;;;2.40;99.90;;;;;;4956822;28;20039;-74
2022/01/28 03:51:18;;;;;;;28.55;9.88;;;2.40;99.90;;;;;;4951553;28;20023;-69
2022/01/28 03:53:43;;;;;;;26.75;10.18;;;2.40;99.90;;;;;;4953035;28;20039;-71
2022/01/28 03:56:09;;;;;;;30.55;10.77;;;2.40;99.90;;;;;;4933039;29;20126;-69
2022/01/28 03:58:35;;;;;;;28.42;10.52;;;2.40;99.90;;;;;;4949850;28;20058;-73
2022/01/28 04:01:01;;;;;;;30.75;11.13;;;2.40;99.90;;;;;;4952417;28;20038;-70
2022/01/28 04:11:31;;;;;;;29.75;10.25;;;2.30;99.90;;;;;;4947287;28;20163;-69
2022/01/28 04:14:07;;;;;;;29.25;10.35;;;2.30;99.90;;;;;;4958454;28;20034;-69
2022/01/28 04:17:20;;;;;;;29.15;10.70;;;2.30;99.90;;;;;;4946876;28;20702;-69
2022/01/28 04:19:19;;;;;;;28.58;10.25;;;2.40;99.90;;;;;;4935586;28;20110;-71
2022/01/28 04:21:45;;;;;;;27.08;10.32;;;2.40;99.90;;;;;;4951798;28;20381;-69
2022/01/28 04:24:11;;;;;;;24.02;9.65;;;2.40;99.90;;;;;;4948108;28;20118;-72
2022/01/28 04:26:37;;;;;;;27.63;10.38;;;2.40;99.90;;;;;;4952050;28;20031;-71
2022/01/28 04:29:02;;;;;;;24.05;9.70;;;2.40;99.90;;;;;;4949943;28;20118;-71
2022/01/28 04:31:28;;;;;;;26.52;9.57;;;2.40;99.90;;;;;;4950065;28;20067;-71
2022/01/28 04:33:55;;;;;;;27.90;10.80;;;2.40;99.90;;;;;;4953626;28;20035;-73
2022/01/28 04:36:23;;;;;;;28.70;9.93;;;2.40;99.90;;;;;;4951052;28;20469;-70
2022/01/28 04:38:57;;;;;;;24.88;9.82;;;2.40;99.90;;;;;;4954626;28;20035;-70
2022/01/28 04:41:36;;;;;;;27.85;10.35;;;2.50;99.90;;;;;;4953774;28;20328;-71
2022/01/28 04:44:05;;;;;;;27.27;9.80;;;2.40;99.90;;;;;;4953827;28;20031;-72
2022/01/28 04:46:40;;;;;;;29.90;10.48;;;2.40;99.90;;;;;;4956387;28;20023;-71
2022/01/28 04:49:15;;;;;;;24.58;9.27;;;2.40;99.90;;;;;;4953456;28;20034;-71
2022/01/28 04:54:34;;;;;;;24.98;9.32;;;2.20;99.90;;;;;;4952572;28;20035;-70
2022/01/28 04:59:37;;;;;;;27.92;9.98;;;2.10;99.90;;;;;;4952328;28;20135;-71
2022/01/28 05:02:17;;;;;;;28.50;9.68;;;2.10;99.90;;;;;;4956475;28;20063;-68
2022/01/28 05:05:05;;;;;;;30.25;10.50;;;2.10;99.90;;;;;;4951130;28;20038;-70
2022/01/28 05:08:09;;;;;;;25.95;9.48;;;2.10;99.90;;;;;;4949093;28;20032;-69
2022/01/28 05:24:38;;;;;;;24.15;9.65;;;2.10;99.90;;;;;;4949044;28;20038;-66
2022/01/28 05:27:01;;;;;;;33.17;11.25;;;2.20;99.90;;;;;;4948626;28;20035;-64
2022/01/28 05:29:26;;;;;;;21.35;7.10;;;2.20;99.90;;;;;;4949894;28;20042;-64
2022/01/28 05:31:52;;;;;;;29.60;10.80;;;2.20;99.90;;;;;;4958229;28;20027;-64
2022/01/28 05:34:18;;;;;;;28.23;10.52;;;2.20;99.90;;;;;;4958451;28;20011;-66
2022/01/28 05:36:45;;;;;;;27.95;10.02;;;2.20;99.90;;;;;;4949068;28;20028;-66
2022/01/28 05:39:11;;;;;;;31.23;10.95;;;2.30;99.90;;;;;;4949551;28;20035;-65
2022/01/28 05:41:36;;;;;;;33.10;11.75;;;2.30;99.90;;;;;;4950088;28;20046;-66
2022/01/28 05:44:02;;;;;;;35.00;11.98;;;2.30;99.90;;;;;;4950641;28;20034;-66
2022/01/28 05:46:29;;;;;;;29.67;11.55;;;2.30;99.90;;;;;;4951045;28;20043;-67
2022/01/28 05:48:58;;;;;;;34.22;12.45;;;2.30;99.90;;;;;;4948466;28;20451;-69
2022/01/28 05:51:25;;;;;;;35.78;11.45;;;2.30;99.90;;;;;;4948016;28;20031;-68
2022/01/28 05:53:50;;;;;;;28.55;10.98;;;2.30;99.90;;;;;;4949781;28;20058;-65
2022/01/28 05:56:16;;;;;;;33.70;11.68;;;2.30;99.90;;;;;;4948259;28;20437;-67
2022/01/28 05:58:42;;;;;;;37.17;12.43;;;2.30;99.90;;;;;;4949733;29;20469;-66
2022/01/28 06:01:07;;;;;;;33.10;11.05;;;2.30;99.90;;;;;;4948832;28;20475;-67
2022/01/28 06:03:33;;;;;;;30.75;11.25;;;2.30;99.90;;;;;;4947917;28;20040;-67
2022/01/28 06:05:59;;;;;;;34.83;11.27;;;2.30;99.90;;;;;;4948505;28;20043;-68
2022/01/28 06:08:24;;;;;;;29.75;10.65;;;2.30;99.90;;;;;;4948465;28;20063;-66
2022/01/28 06:10:50;;;;;;;27.45;10.43;;;2.30;99.90;;;;;;4949414;28;20489;-65
2022/01/28 06:13:16;;;;;;;35.55;11.77;;;2.40;99.90;;;;;;4949276;28;20046;-67
2022/01/28 06:15:43;;;;;;;32.25;10.63;;;2.30;99.90;;;;;;4947781;28;20031;-66
2022/01/28 06:18:10;;;;;;;35.22;10.93;;;2.30;99.90;;;;;;4948655;28;20035;-64
2022/01/28 06:20:36;;;;;;;36.08;11.10;;;2.30;99.90;;;;;;4942432;28;20041;-65
2022/01/28 06:23:02;;;;;;;31.10;10.60;;;2.30;99.90;;;;;;4948943;28;20382;-68
2022/01/28 06:25:27;;;;;;;29.40;10.05;;;2.30;99.90;;;;;;4949463;28;20032;-67
2022/01/28 06:27:53;;;;;;;35.28;11.73;;;2.30;99.90;;;;;;4949749;28;20046;-66
2022/01/28 06:30:20;;;;;;;29.70;11.50;;;2.30;99.90;;;;;;4949328;28;20070;-67
2022/01/28 06:32:47;;;;;;;34.42;11.80;;;2.30;99.90;;;;;;4951719;28;20028;-66
2022/01/28 06:35:13;;;;;;;29.70;10.95;;;2.30;99.90;;;;;;4949012;28;20027;-65
2022/01/28 06:37:41;;;;;;;31.15;11.32;;;2.30;99.90;;;;;;4947280;28;20042;-66
2022/01/28 06:40:13;;;;;;;33.25;12.00;;;2.30;99.90;;;;;;4948636;28;20058;-64
2022/01/28 06:42:39;;;;;;;34.22;12.73;;;2.30;99.90;;;;;;4949441;28;20034;-66
2022/01/28 06:45:05;;;;;;;32.03;11.10;;;2.30;99.90;;;;;;4947618;28;20465;-69
2022/01/28 06:47:32;;;;;;;30.48;10.60;;;2.30;99.90;;;;;;4949493;28;20023;-65
2022/01/28 06:49:58;;;;;;;41.25;11.38;;;2.30;99.90;;;;;;4953113;28;20031;-66
2022/01/28 06:52:24;;;;;;;30.40;10.80;;;2.30;99.90;;;;;;4951158;28;20023;-66
2022/01/28 06:54:49;;;;;;;30.95;10.13;;;2.20;99.90;;;;;;4952406;28;20031;-65
2022/01/28 06:57:15;;;;;;;30.45;10.55;;;2.30;99.90;;;;;;4951169;28;20039;-65
2022/01/28 06:59:42;;;;;;;30.00;10.68;;;2.20;99.90;;;;;;4952501;28;20035;-64
2022/01/28 07:02:07;;;;;;;30.17;10.73;;;2.20;99.90;;;;;;4951939;28;20024;-65
2022/01/28 07:04:33;;;;;;;33.33;10.93;;;2.20;99.90;;;;;;4952853;28;20102;-66
2022/01/28 07:06:59;;;;;;;27.73;10.77;;;2.20;99.90;;;;;;4952630;28;20038;-66
2022/01/28 07:09:25;;;;;;;29.98;10.77;;;2.10;99.90;;;;;;4951573;28;20532;-64
2022/01/28 07:11:51;;;;;;;35.10;11.82;;;2.10;99.90;;;;;;4952778;28;20035;-66
2022/01/28 07:14:17;;;;;;;34.15;11.20;;;2.10;99.90;;;;;;4951117;28;20019;-66
2022/01/28 07:16:42;;;;;;;37.08;11.50;;;2.10;99.90;;;;;;4951340;28;20118;-63
2022/01/28 07:19:09;;;;;;;31.73;10.85;;;2.10;99.90;;;;;;4955134;28;20376;-65
2022/01/28 07:21:35;;;;;;;35.90;11.20;;;2.10;99.90;;;;;;4954926;28;20039;-65
2022/01/28 07:24:01;;;;;;;31.63;10.73;;;2.10;99.90;;;;;;4952712;28;20031;-65
2022/01/28 07:26:26;;;;;;;33.75;11.57;;;2.10;99.90;;;;;;4951549;28;20085;-65
2022/01/28 07:28:53;;;;;;;36.65;11.05;;;2.20;99.90;;;;;;4951769;28;20031;-64
2022/01/28 07:31:19;;;;;;;32.00;11.57;;;2.20;99.90;;;;;;4951236;28;20131;-65
2022/01/28 07:33:45;;;;;;;31.77;10.82;;;2.20;99.90;;;;;;4952437;28;20043;-65
2022/01/28 07:36:11;;;;;;;31.80;11.93;;;2.20;99.90;;;;;;4951498;28;20023;-65
2022/01/28 07:38:36;;;;;;;30.13;10.55;;;2.20;99.90;;;;;;4954630;28;20050;-66
2022/01/28 07:41:03;;;;;;;30.30;11.00;;;2.20;99.90;;;;;;4949911;28;20038;-67
2022/01/28 07:43:29;;;;;;;33.78;11.00;;;2.20;99.90;;;;;;4952261;28;20023;-63
2022/01/28 07:45:55;;;;;;;40.60;11.68;;;2.20;99.90;;;;;;4951661;28;20377;-66
2022/01/28 07:48:20;;;;;;;35.47;11.32;;;2.20;99.90;;;;;;4951042;29;20369;-65
2022/01/28 07:50:46;;;;;;;39.10;12.38;;;2.30;99.90;;;;;;4951502;28;20094;-66
2022/01/28 07:53:16;;;;;;;40.00;12.55;;;2.20;99.90;;;;;;4950640;28;20041;-64
2022/01/28 07:55:42;;;;;;;32.67;11.80;;;2.30;99.90;;;;;;4951930;28;20040;-66
2022/01/28 07:58:08;;;;;;;35.65;11.57;;;2.30;99.90;;;;;;4950563;28;20114;-65
2022/01/28 08:00:34;;;;;;;33.80;11.38;;;2.30;99.90;;;;;;4950771;28;20338;-67
2022/01/28 08:03:00;;;;;;;35.28;12.23;;;2.30;99.90;;;;;;4955103;28;20023;-66
2022/01/28 08:05:25;;;;;;;40.28;11.07;;;2.30;99.90;;;;;;4949826;28;20660;-65
2022/01/28 08:07:52;;;;;;;34.33;11.25;;;2.30;99.90;;;;;;4951046;28;20098;-65
2022/01/28 08:10:19;;;;;;;26.23;9.68;;;2.30;99.90;;;;;;4950810;29;20043;-65
2022/01/28 08:12:50;;;;;;;28.42;10.40;;;2.40;99.90;;;;;;4951049;28;20583;-64
2022/01/28 08:15:16;;;;;;;;;;;2.40;99.90;;;;;;4951078;28;20106;-64
2022/01/28 08:17:41;;;;;;;30.23;9.93;;;2.40;99.90;;;;;;4951272;28;19945;-65
2022/01/28 08:20:08;;;;;;;26.52;9.73;;;2.40;99.90;;;;;;4951395;28;20440;-66
2022/01/28 08:22:49;;;;;;;27.55;9.35;;;2.40;99.90;;;;;;4951506;28;20058;-66
2022/01/28 08:25:17;;;;;;;29.17;9.88;;;2.50;99.90;;;;;;4948055;28;20109;-64
2022/01/28 08:27:44;;;;;;;25.67;9.90;;;2.50;99.90;;;;;;4948981;28;20123;-65
2022/01/28 08:30:11;;;;;;;33.67;10.10;;;2.50;99.90;;;;;;4950833;28;20068;-68
2022/01/28 08:32:37;;;;;;;24.35;8.70;;;2.60;99.90;;;;;;4951325;28;20042;-66
2022/01/28 08:35:03;;;;;;;33.63;10.88;;;2.50;99.90;;;;;;4951108;28;20617;-67
2022/01/28 08:37:28;;;;;;;25.67;9.82;;;2.50;99.90;;;;;;4957974;28;20058;-66
2022/01/28 08:39:54;;;;;;;33.58;10.25;;;2.50;99.90;;;;;;4951059;29;20213;-64
2022/01/28 08:42:20;;;;;;;32.00;10.38;;;2.40;99.90;;;;;;4949991;28;20396;-65
2022/01/28 08:44:45;;;;;;;30.10;10.45;;;2.50;99.90;;;;;;4951185;29;20147;-65
2022/01/28 08:47:11;;;;;;;30.63;10.40;;;2.40;99.90;;;;;;4948057;29;20516;-67
2022/01/28 08:49:37;;;;;;;31.05;10.57;;;2.30;99.90;;;;;;4950803;28;20031;-65
2022/01/28 08:52:03;;;;;;;34.33;10.75;;;2.20;99.90;;;;;;4951838;29;20125;-66
2022/01/28 08:54:29;;;;;;;30.17;11.18;;;2.00;99.90;;;;;;4949636;28;20027;-65
2022/01/28 08:56:55;;;;;;;36.28;11.10;;;2.00;99.90;;;;;;4950521;28;20085;-67
2022/01/28 08:59:20;;;;;;;37.17;11.82;;;2.00;99.90;;;;;;4949764;28;20102;-67
2022/01/28 09:01:46;;;;;;;38.30;12.05;;;2.10;99.90;;;;;;4950673;28;20035;-67
2022/01/28 09:04:12;;;;;;;37.50;11.20;;;2.20;99.90;;;;;;4949218;28;20019;-68
2022/01/28 09:06:37;;;;;;;35.38;11.18;;;2.30;99.90;;;;;;4947063;28;20054;-67
2022/01/28 09:09:04;;;;;;;35.50;10.73;;;2.30;99.90;;;;;;4950506;28;20059;-65
2022/01/28 09:14:12;;;;;;;37.40;12.85;;;2.30;99.90;;;;;;4950021;28;20499;-68
2022/01/28 09:16:38;;;;;;;38.10;11.63;;;2.40;99.90;;;;;;4950600;28;20038;-66
2022/01/28 09:19:04;;;;;;;34.33;11.43;;;2.40;99.90;;;;;;4950533;28;20047;-64
2022/01/28 09:21:30;;;;;;;30.27;11.35;;;2.50;99.90;;;;;;4948522;28;20207;-66
2022/01/28 09:23:55;;;;;;;33.92;10.52;;;2.50;99.90;;;;;;4949997;28;20090;-65
2022/01/28 09:26:21;;;;;;;38.03;11.68;;;2.50;99.90;;;;;;4956326;28;20078;-64
2022/01/28 09:28:46;;;;;;;35.28;11.20;;;2.60;99.90;;;;;;4948799;28;20054;-65
2022/01/28 09:31:12;;;;;;;31.63;10.00;;;2.50;99.90;;;;;;4948020;28;20023;-67
2022/01/28 09:33:38;;;;;;;32.47;11.35;;;2.50;99.90;;;;;;4950124;28;20031;-64
2022/01/28 09:36:05;;;;;;;39.50;11.52;;;2.60;99.90;;;;;;4950736;28;20041;-67
2022/01/28 09:38:31;;;;;;;37.92;11.82;;;2.60;99.90;;;;;;4956470;28;20210;-67
2022/01/28 09:40:59;;;;;;;35.85;11.05;;;2.50;99.90;;;;;;4950382;28;20622;-65
2022/01/28 09:43:26;;;;;;;34.47;11.63;;;2.50;99.90;;;;;;4949899;28;20034;-64
2022/01/28 09:45:52;;;;;;;35.03;10.48;;;2.50;99.90;;;;;;4950048;28;20034;-66
2022/01/28 09:48:19;;;;;;;43.22;12.93;;;2.50;99.90;;;;;;4948619;29;20030;-68
2022/01/28 09:50:46;;;;;;;37.33;10.85;;;2.40;99.90;;;;;;4949359;29;20054;-64
2022/01/28 09:53:13;;;;;;;41.33;11.15;;;2.40;99.90;;;;;;4948431;28;20039;-68
2022/01/28 09:55:39;;;;;;;34.67;10.85;;;2.40;99.90;;;;;;4949627;28;20086;-66
2022/01/28 09:58:05;;;;;;;33.90;11.32;;;2.50;99.90;;;;;;4948071;28;20062;-65
2022/01/28 10:00:32;;;;;;;36.45;11.65;;;2.50;99.90;;;;;;4948682;28;20070;-65
2022/01/28 10:03:08;;;;;;;39.53;11.90;;;2.60;99.90;;;;;;4949898;28;20031;-65
2022/01/28 10:05:42;;;;;;;31.48;11.60;;;2.60;99.90;;;;;;4949366;28;20107;-65
2022/01/28 10:08:20;;;;;;;35.53;11.43;;;2.80;99.90;;;;;;4949237;28;20043;-65
2022/01/28 10:11:07;;;;;;;31.35;10.35;;;2.80;99.90;;;;;;4950216;28;20797;-64
2022/01/28 10:13:43;;;;;;;38.67;11.25;;;2.90;99.90;;;;;;4944253;28;20098;-65
2022/01/28 10:16:12;;;;;;;29.02;10.25;;;2.90;99.90;;;;;;4949345;28;20070;-65
2022/01/28 10:18:42;;;;;;;29.42;9.40;;;3.00;99.90;;;;;;4947733;28;20042;-64
2022/01/28 10:21:26;;;;;;;25.88;9.88;;;3.00;99.90;;;;;;4950278;28;20153;-66
2022/01/28 10:24:25;;;;;;;29.13;9.65;;;3.00;99.90;;;;;;4952139;28;20361;-67
2022/01/28 10:26:54;;;;;;;24.88;9.07;;;3.10;99.90;;;;;;4909810;29;20134;-66
2022/01/28 10:29:28;;;;;;;29.55;9.48;;;3.20;99.90;;;;;;4958713;28;20074;-65
2022/01/28 10:31:56;;;;;;;23.27;8.40;;;3.30;99.90;;;;;;4948345;28;20062;-67
2022/01/28 10:34:32;;;;;;;25.35;8.43;;;3.30;99.90;;;;;;4950642;28;20481;-66
2022/01/28 10:37:07;;;;;;;25.35;8.57;;;3.30;99.90;;;;;;4951627;28;20373;-66
2022/01/28 10:39:40;;;;;;;22.60;7.85;;;3.30;99.90;;;;;;4939524;29;20067;-66
2022/01/28 10:42:06;;;;;;;31.20;9.07;;;3.30;99.90;;;;;;4953537;28;20031;-65
2022/01/28 10:44:32;;;;;;;26.80;9.15;;;3.30;99.90;;;;;;4952095;28;20031;-65
2022/01/28 10:47:06;;;;;;;25.98;8.50;;;3.40;99.90;;;;;;4953203;28;20440;-65
2022/01/28 10:49:36;;;;;;;30.38;9.07;;;3.50;99.90;;;;;;4950722;28;20027;-67
2022/01/28 10:52:05;;;;;;;29.17;9.50;;;3.50;99.90;;;;;;4953023;28;20027;-65
2022/01/28 10:54:31;;;;;;;31.67;8.15;;;3.60;99.90;;;;;;4953694;28;20110;-64
2022/01/28 10:56:59;;;;;;;27.55;7.68;;;3.60;99.90;;;;;;4951043;29;20118;-64
2022/01/28 10:59:27;;;;;;;25.88;7.60;;;3.60;99.90;;;;;;4956840;28;20038;-66
2022/01/28 11:01:53;;;;;;;22.98;8.43;;;3.70;99.90;;;;;;4952716;28;20038;-64
2022/01/28 11:04:20;;;;;;;27.98;8.27;;;3.80;99.90;;;;;;4951999;28;20035;-66
2022/01/28 11:06:48;;;;;;;30.25;8.85;;;3.90;99.90;;;;;;4952526;28;20619;-67
2022/01/28 11:09:16;;;;;;;19.25;6.78;;;3.90;99.90;;;;;;4950822;28;20075;-65
2022/01/28 11:11:43;;;;;;;21.10;6.93;;;3.90;99.90;;;;;;4951575;28;20246;-66
2022/01/28 11:14:09;;;;;;;21.73;6.85;;;3.90;99.90;;;;;;4953259;28;20113;-67
2022/01/28 11:16:36;;;;;;;16.67;6.40;;;3.90;99.90;;;;;;4951882;28;20111;-66
2022/01/28 11:19:03;;;;;;;21.58;7.07;;;4.00;99.90;;;;;;4950575;28;20238;-64
2022/01/28 11:21:46;;;;;;;20.58;6.38;;;4.00;99.90;;;;;;4958313;28;20030;-68
2022/01/28 11:25:00;;;;;;;19.85;6.15;;;4.10;99.90;;;;;;4949649;28;20027;-66
2022/01/28 11:27:30;;;;;;;21.23;5.55;;;4.10;99.90;;;;;;4940181;28;20050;-67
2022/01/28 11:30:17;;;;;;;23.05;6.43;;;4.40;99.90;;;;;;4951659;28;20034;-69
2022/01/28 11:33:01;;;;;;;16.52;5.95;;;4.60;99.90;;;;;;4949762;29;20042;-69
2022/01/28 11:35:49;;;;;;;23.90;6.38;;;4.70;99.90;;;;;;4950681;28;20023;-66
2022/01/28 11:38:24;;;;;;;22.30;5.82;;;4.60;99.90;;;;;;4966870;28;20543;-67
2022/01/28 11:40:51;;;;;;;19.17;6.10;;;4.70;99.90;;;;;;4948357;28;20400;-68
2022/01/28 11:43:29;;;;;;;16.52;6.00;;;4.60;99.90;;;;;;4951760;28;20480;-67
2022/01/28 11:46:10;;;;;;;17.33;6.03;;;4.50;99.90;;;;;;4951701;28;20032;-67
2022/01/28 11:49:18;;;;;;;15.23;5.72;;;4.50;99.90;;;;;;4955181;28;20034;-67
2022/01/28 11:51:44;;;;;;;15.48;5.28;;;4.50;99.90;;;;;;4954066;28;20046;-66
2022/01/28 11:54:32;;;;;;;23.33;6.63;;;4.40;99.90;;;;;;4956133;28;20034;-68
2022/01/28 11:56:58;;;;;;;20.38;5.85;;;4.40;99.90;;;;;;4956806;28;20063;-66
2022/01/28 11:59:30;;;;;;;13.45;5.68;;;4.40;99.90;;;;;;4948223;28;20070;-67
2022/01/28 12:01:59;;;;;;;20.55;5.78;;;4.30;99.90;;;;;;4955569;28;20042;-67
2022/01/28 12:04:25;;;;;;;20.65;5.90;;;4.40;99.90;;;;;;4956442;28;20031;-67
2022/01/28 12:07:14;;;;;;;21.08;6.63;;;4.80;99.90;;;;;;4953791;28;20138;-66
2022/01/28 12:09:46;;;;;;;20.55;5.97;;;5.00;99.90;;;;;;4945416;29;20097;-65
2022/01/28 12:12:13;;;;;;;16.55;5.18;;;5.30;99.90;;;;;;4953181;28;20046;-69
2022/01/28 12:15:23;;;;;;;17.63;5.38;;;5.30;99.90;;;;;;4949314;28;20058;-67
2022/01/28 12:17:49;;;;;;;15.25;5.22;;;5.20;99.90;;;;;;4948877;28;20050;-66
2022/01/28 12:20:15;;;;;;;16.10;5.75;;;5.40;99.90;;;;;;4950678;28;20027;-67
2022/01/28 12:22:59;;;;;;;17.90;5.78;;;5.70;99.90;;;;;;4951307;28;20647;-66
2022/01/28 12:25:40;;;;;;;13.77;5.43;;;6.10;99.90;;;;;;4950917;29;20440;-66
2022/01/28 12:28:23;;;;;;;16.95;5.90;;;6.20;99.90;;;;;;4953092;28;20110;-67
2022/01/28 12:30:50;;;;;;;17.13;6.53;;;5.70;99.90;;;;;;4945475;29;20046;-69
2022/01/28 12:33:26;;;;;;;12.02;4.78;;;5.40;99.90;;;;;;4949512;28;20035;-65
2022/01/28 12:35:56;;;;;;;16.67;5.40;;;5.30;99.90;;;;;;4949560;29;20039;-66
2022/01/28 12:38:25;;;;;;;17.63;4.90;;;5.00;99.90;;;;;;4950354;29;20101;-68
2022/01/28 12:40:54;;;;;;;18.98;6.05;;;4.90;99.90;;;;;;4951205;28;20094;-68
2022/01/28 12:43:22;;;;;;;20.75;5.47;;;4.60;99.90;;;;;;4951357;28;20039;-66
2022/01/28 12:45:59;;;;;;;16.10;5.53;;;4.50;99.90;;;;;;4949162;28;20027;-67
2022/01/28 12:48:25;;;;;;;12.68;5.07;;;4.70;99.90;;;;;;4948937;28;20046;-71
2022/01/28 12:50:52;;;;;;;15.23;5.07;;;5.00;99.90;;;;;;4951275;28;20361;-64
2022/01/28 12:53:39;;;;;;;12.48;5.05;;;5.30;99.90;;;;;;4950621;28;20690;-67
2022/01/28 12:56:06;;;;;;;17.60;5.72;;;5.30;99.90;;;;;;4960597;28;20551;-65
2022/01/28 12:58:34;;;;;;;16.42;5.38;;;5.40;99.90;;;;;;4949559;28;20031;-65
2022/01/28 13:01:08;;;;;;;17.58;5.38;;;5.40;99.90;;;;;;4947406;28;20058;-66
2022/01/28 13:03:39;;;;;;;16.77;5.55;;;5.40;99.90;;;;;;4950032;28;20043;-67
2022/01/28 13:09:01;;;;;;;14.68;5.60;;;4.90;99.90;;;;;;4950331;28;20094;-66
2022/01/28 13:11:28;;;;;;;19.83;5.53;;;4.90;99.90;;;;;;4950197;28;20023;-66
2022/01/28 13:13:56;;;;;;;19.13;5.57;;;4.90;99.90;;;;;;4950801;28;20034;-66
2022/01/28 13:16:32;;;;;;;20.83;6.32;;;4.80;99.90;;;;;;4950636;28;20119;-66
2022/01/28 13:18:59;;;;;;;18.45;5.50;;;5.10;99.90;;;;;;4943213;28;20582;-67
2022/01/28 13:21:26;;;;;;;16.45;4.93;;;5.60;99.90;;;;;;4950232;28;20126;-69
2022/01/28 13:24:11;;;;;;;15.95;5.22;;;5.80;99.90;;;;;;4950593;28;20039;-65
2022/01/28 13:26:54;;;;;;;18.83;4.78;;;5.40;99.90;;;;;;4949505;28;20477;-67
2022/01/28 13:29:28;;;;;;;14.23;5.07;;;5.20;99.90;;;;;;4945121;28;20121;-65
2022/01/28 13:31:58;;;;;;;15.02;4.70;;;5.00;99.90;;;;;;4949036;29;20651;-68
2022/01/28 13:34:24;;;;;;;15.75;4.82;;;5.20;99.90;;;;;;4950254;28;20049;-68
2022/01/28 13:36:52;;;;;;;11.25;4.43;;;5.60;99.90;;;;;;4949856;28;20028;-65
2022/01/28 13:39:25;;;;;;;13.98;4.85;;;5.60;99.90;;;;;;4950457;28;20043;-66
2022/01/28 13:42:09;;;;;;;12.45;4.55;;;5.50;99.90;;;;;;4948229;28;20042;-66
2022/01/28 13:44:38;;;;;;;15.77;4.57;;;5.00;99.90;;;;;;4949281;28;20027;-66
2022/01/28 13:47:04;;;;;;;21.73;5.30;;;4.70;99.90;;;;;;4950484;28;20039;-66
2022/01/28 13:49:37;;;;;;;15.20;4.78;;;4.70;99.90;;;;;;4949387;28;20054;-67
2022/01/28 13:52:18;;;;;;;12.80;4.57;;;4.60;99.90;;;;;;4950264;28;20023;-65
2022/01/28 13:54:45;;;;;;;18.83;4.38;;;4.60;99.90;;;;;;4949350;28;20023;-67
2022/01/28 13:57:11;;;;;;;12.85;4.32;;;4.60;99.90;;;;;;4941365;29;20023;-66
2022/01/28 13:59:42;;;;;;;15.43;4.78;;;4.90;99.90;;;;;;4949298;28;20063;-67
2022/01/28 14:02:16;;;;;;;16.95;4.10;;;5.00;99.90;;;;;;4950206;28;20130;-67
2022/01/28 14:04:47;;;;;;;13.93;4.75;;;4.80;99.90;;;;;;4945015;28;20055;-66